createdAt,value
2019-04-06T00:01:03.712Z,17.93
2019-04-06T00:06:09.146Z,16.87
2019-04-06T00:11:15.283Z,17.10
2019-04-06T00:16:20.772Z,16.13
2019-04-06T00:21:26.651Z,16.67
2019-04-06T00:26:31.952Z,15.93
2019-04-06T00:31:47.397Z,17.57
2019-04-06T00:36:53.074Z,15.47
2019-04-06T00:41:58.693Z,16.47
2019-04-06T00:47:04.354Z,17.00
2019-04-06T00:52:10.663Z,17.27
2019-04-06T00:57:15.988Z,17.77
2019-04-06T01:02:22.262Z,17.73
2019-04-06T01:07:27.776Z,18.33
2019-04-06T01:12:33.340Z,17.50
2019-04-06T01:17:39.535Z,17.60
2019-04-06T01:22:44.860Z,16.97
2019-04-06T01:27:51.345Z,16.93
2019-04-06T01:32:56.639Z,17.87
2019-04-06T01:38:02.040Z,17.03
2019-04-06T01:43:07.365Z,16.93
2019-04-06T01:48:12.663Z,17.47
2019-04-06T01:53:17.966Z,16.40
2019-04-06T01:58:23.290Z,16.83
2019-04-06T02:03:28.592Z,16.63
2019-04-06T02:08:33.912Z,18.33
2019-04-06T02:13:39.227Z,18.30
2019-04-06T02:18:44.540Z,17.10
2019-04-06T02:23:50.533Z,16.67
2019-04-06T02:28:55.923Z,17.03
2019-04-06T02:34:20.218Z,16.73
2019-04-06T02:39:39.665Z,17.43
2019-04-06T02:44:45.023Z,18.50
2019-04-06T02:49:50.450Z,18.50
2019-04-06T02:54:56.820Z,17.90
2019-04-06T03:00:02.227Z,17.77
2019-04-06T03:05:08.897Z,17.23
2019-04-06T03:10:14.324Z,18.23
2019-04-06T03:15:19.921Z,18.07
2019-04-06T03:20:26.796Z,18.03
2019-04-06T03:25:32.121Z,18.67
2019-04-06T03:30:37.482Z,18.93
2019-04-06T03:35:47.575Z,18.63
2019-04-06T03:40:49.864Z,18.37
2019-04-06T03:45:55.263Z,18.27
2019-04-06T03:51:00.595Z,18.53
2019-04-06T03:56:05.924Z,19.30
2019-04-06T04:01:11.139Z,18.67
2019-04-06T04:06:16.470Z,18.60
2019-04-06T04:11:21.790Z,19.10
2019-04-06T04:16:27.117Z,18.87
2019-04-06T04:21:32.459Z,18.80
2019-04-06T04:26:37.771Z,18.03
2019-04-06T04:31:43.128Z,18.53
2019-04-06T04:36:48.464Z,18.67
2019-04-06T04:41:55.865Z,19.20
2019-04-06T04:47:01.112Z,17.67
2019-04-06T04:52:06.492Z,18.23
2019-04-06T04:57:11.760Z,17.67
2019-04-06T05:02:17.132Z,18.80
2019-04-06T05:07:22.452Z,19.20
2019-04-06T05:12:27.780Z,18.87
2019-04-06T05:17:33.572Z,17.60
2019-04-06T05:22:39.083Z,18.20
2019-04-06T05:27:52.019Z,17.17
2019-04-06T05:32:51.541Z,17.50
2019-04-06T05:37:56.903Z,16.63
2019-04-06T05:43:02.306Z,18.00
2019-04-06T05:48:07.570Z,19.23
2019-04-06T05:53:12.894Z,18.70
2019-04-06T05:58:18.280Z,16.93
2019-04-06T06:03:23.647Z,17.37
2019-04-06T06:08:30.537Z,17.83
2019-04-06T06:13:39.806Z,16.73
2019-04-06T06:18:49.979Z,16.40
2019-04-06T06:23:56.316Z,15.23
2019-04-06T06:29:01.688Z,15.13
2019-04-06T06:34:08.477Z,16.20
2019-04-06T06:39:14.594Z,15.83
2019-04-06T06:44:20.142Z,14.77
2019-04-06T06:49:26.308Z,12.67
2019-04-06T06:54:32.439Z,14.47
2019-04-06T06:59:38.914Z,13.37
2019-04-06T07:04:44.355Z,13.70
2019-04-06T07:09:50.164Z,13.30
2019-04-06T07:14:56.049Z,13.23
2019-04-06T07:20:01.983Z,12.10
2019-04-06T07:25:08.746Z,12.00
2019-04-06T07:30:15.325Z,12.50
2019-04-06T07:35:20.654Z,12.20
2019-04-06T07:40:26.266Z,12.30
2019-04-06T07:45:31.595Z,11.57
2019-04-06T07:50:37.105Z,11.27
2019-04-06T07:55:42.450Z,12.50
2019-04-06T08:00:48.222Z,12.20
2019-04-06T08:05:54.314Z,12.47
2019-04-06T08:11:02.637Z,14.07
2019-04-06T08:16:08.410Z,13.37
2019-04-06T08:21:14.398Z,12.53
2019-04-06T08:26:20.608Z,14.37
2019-04-06T08:31:26.342Z,12.77
2019-04-06T08:36:32.711Z,11.57
2019-04-06T08:41:38.035Z,11.57
2019-04-06T08:46:43.355Z,13.67
2019-04-06T08:51:49.562Z,14.63
2019-04-06T08:56:57.015Z,13.10
2019-04-06T09:02:03.819Z,13.33
2019-04-06T09:07:11.902Z,11.83
2019-04-06T09:12:19.988Z,11.43
2019-04-06T09:17:26.565Z,12.53
2019-04-06T09:22:33.454Z,12.33
2019-04-06T09:27:42.261Z,10.93
2019-04-06T09:32:47.979Z,9.97
2019-04-06T09:37:53.760Z,10.40
2019-04-06T09:42:59.240Z,9.07
2019-04-06T09:48:20.326Z,9.90
2019-04-06T09:53:51.048Z,9.00
2019-04-06T09:59:07.644Z,9.27
2019-04-06T10:04:47.242Z,8.57
2019-04-06T10:10:04.855Z,10.63
2019-04-06T10:15:38.472Z,9.23
2019-04-06T10:20:55.819Z,9.50
2019-04-06T10:26:19.317Z,10.23
2019-04-06T10:31:55.997Z,8.73
2019-04-06T10:37:19.025Z,8.70
2019-04-06T10:42:42.935Z,8.80
2019-04-06T10:47:54.482Z,8.33
2019-04-06T10:53:29.413Z,9.07
2019-04-06T10:58:52.277Z,8.50
2019-04-06T11:04:19.585Z,9.60
2019-04-06T11:09:46.740Z,9.63
2019-04-06T11:15:00.580Z,9.00
2019-04-06T11:20:32.384Z,10.10
2019-04-06T11:26:02.726Z,8.53
2019-04-06T11:31:26.227Z,9.53
2019-04-06T11:36:40.056Z,9.20
2019-04-06T11:42:04.425Z,9.03
2019-04-06T11:47:19.344Z,9.50
2019-04-06T11:52:37.411Z,9.07
2019-04-06T11:58:02.520Z,8.70
2019-04-06T12:03:26.893Z,8.73
2019-04-06T12:09:08.147Z,9.10
2019-04-06T12:14:35.320Z,9.40
2019-04-06T12:19:58.372Z,10.23
2019-04-06T12:25:20.251Z,9.43
2019-04-06T12:30:38.656Z,10.27
2019-04-06T12:36:12.856Z,10.90
2019-04-06T12:41:39.888Z,11.33
2019-04-06T12:47:20.673Z,10.90
2019-04-06T12:52:45.106Z,11.00
2019-04-06T12:58:18.854Z,9.98
2019-04-06T13:03:41.886Z,11.85
2019-04-06T13:08:54.227Z,10.50
2019-04-06T13:14:19.600Z,10.50
2019-04-06T13:19:35.579Z,11.12
2019-04-06T13:24:50.844Z,10.25
2019-04-06T13:30:19.310Z,10.08
2019-04-06T13:35:37.852Z,10.80
2019-04-06T13:41:01.844Z,9.88
2019-04-06T13:46:26.300Z,9.65
2019-04-06T13:51:41.510Z,10.38
2019-04-06T13:57:24.576Z,10.13
2019-04-06T14:02:54.825Z,9.90
2019-04-06T14:08:18.126Z,8.75
2019-04-06T14:13:42.312Z,8.48
2019-04-06T14:19:10.055Z,8.35
2019-04-06T14:24:33.789Z,8.63
2019-04-06T14:30:10.315Z,9.40
2019-04-06T14:35:33.559Z,7.78
2019-04-06T14:40:56.902Z,8.18
2019-04-06T14:46:15.358Z,7.10
2019-04-06T14:51:30.358Z,7.40
2019-04-06T14:57:00.624Z,7.22
2019-04-06T15:02:21.723Z,7.72
2019-04-06T15:07:49.081Z,6.80
2019-04-06T15:13:02.096Z,6.90
2019-04-06T15:18:33.539Z,7.57
2019-04-06T15:23:47.801Z,7.30
2019-04-06T15:29:11.786Z,7.17
2019-04-06T15:34:39.039Z,7.40
2019-04-06T15:40:02.515Z,7.15
2019-04-06T15:45:27.009Z,7.42
2019-04-06T15:50:44.699Z,6.50
2019-04-06T15:56:02.182Z,6.58
2019-04-06T16:01:25.578Z,6.47
2019-04-06T16:06:41.080Z,6.13
2019-04-06T16:11:58.614Z,6.17
2019-04-06T16:17:17.617Z,5.07
2019-04-06T16:22:44.786Z,5.80
2019-04-06T16:28:08.042Z,5.30
2019-04-06T16:33:22.439Z,4.97
2019-04-06T16:38:39.832Z,5.60
2019-04-06T16:44:07.248Z,5.43
2019-04-06T16:49:24.472Z,5.60
2019-04-06T16:54:40.465Z,11.80
2019-04-06T17:00:16.190Z,6.43
2019-04-06T17:05:28.579Z,4.90
2019-04-06T17:11:08.306Z,4.43
2019-04-06T17:16:35.438Z,3.97
2019-04-06T17:21:57.959Z,4.13
2019-04-06T17:27:22.229Z,4.90
2019-04-06T17:32:43.960Z,4.80
2019-04-06T17:38:15.070Z,3.67
2019-04-06T17:43:47.375Z,4.73
2019-04-06T17:49:10.275Z,3.30
2019-04-06T17:54:37.441Z,3.40
2019-04-06T17:59:54.126Z,3.30
2019-04-06T18:05:18.599Z,2.53
2019-04-06T18:11:01.321Z,3.20
2019-04-06T18:16:07.041Z,2.50
2019-04-06T18:21:12.459Z,2.10
2019-04-06T18:26:19.275Z,2.40
2019-04-06T18:31:42.975Z,2.57
2019-04-06T18:37:11.237Z,2.70
2019-04-06T18:42:16.718Z,2.47
2019-04-06T18:47:22.217Z,2.43
2019-04-06T18:52:28.595Z,2.90
2019-04-06T18:57:33.928Z,2.90
2019-04-06T19:02:40.340Z,2.70
2019-04-06T19:07:47.117Z,3.07
2019-04-06T19:12:52.828Z,3.10
2019-04-06T19:17:58.111Z,3.47
2019-04-06T19:23:03.694Z,3.13
2019-04-06T19:28:09.294Z,4.10
2019-04-06T19:33:23.279Z,5.50
2019-04-06T19:38:21.715Z,4.33
2019-04-06T19:43:27.116Z,4.07
2019-04-06T19:48:32.564Z,3.10
2019-04-06T19:53:38.942Z,4.20
2019-04-06T19:58:44.763Z,3.80
2019-04-06T20:03:51.579Z,3.50
2019-04-06T20:08:57.795Z,3.40
2019-04-06T20:14:03.179Z,2.97
2019-04-06T20:19:08.830Z,2.80
2019-04-06T20:24:14.912Z,2.83
2019-04-06T20:29:20.494Z,2.57
2019-04-06T20:34:25.916Z,2.77
2019-04-06T20:39:33.321Z,2.70
2019-04-06T20:44:38.467Z,2.83
2019-04-06T20:49:43.788Z,3.10
2019-04-06T20:54:50.423Z,3.17
2019-04-06T20:59:56.120Z,3.20
2019-04-06T21:05:02.194Z,2.90
2019-04-06T21:10:07.849Z,3.10
2019-04-06T21:15:19.524Z,3.10
2019-04-06T21:20:20.903Z,3.13
2019-04-06T21:25:26.387Z,3.33
2019-04-06T21:30:32.352Z,4.00
2019-04-06T21:35:38.103Z,3.57
2019-04-06T21:40:43.528Z,2.90
2019-04-06T21:45:50.027Z,3.60
2019-04-06T21:50:56.071Z,3.23
2019-04-06T21:56:07.081Z,2.93
2019-04-06T22:01:10.242Z,3.10
2019-04-06T22:06:15.964Z,3.20
2019-04-06T22:11:22.930Z,3.40
2019-04-06T22:16:28.849Z,2.87
2019-04-06T22:21:35.395Z,3.30
2019-04-06T22:26:41.337Z,3.20
2019-04-06T22:31:46.728Z,3.23
2019-04-06T22:36:52.956Z,2.90
2019-04-06T22:41:58.320Z,3.57
2019-04-06T22:47:04.765Z,3.10
2019-04-06T22:52:11.262Z,3.43
2019-04-06T22:57:16.957Z,3.57
2019-04-06T23:02:23.724Z,3.47
2019-04-06T23:07:30.652Z,3.20
2019-04-06T23:12:38.206Z,3.53
2019-04-06T23:17:44.269Z,3.47
2019-04-06T23:22:49.605Z,3.40
2019-04-06T23:27:55.704Z,3.90
2019-04-06T23:33:01.673Z,3.90
2019-04-06T23:38:07.517Z,3.83
2019-04-06T23:43:13.800Z,4.10
2019-04-06T23:48:19.152Z,4.40
2019-04-06T23:53:25.353Z,5.00
2019-04-06T23:58:31.381Z,5.40
